Time;durP1;ratioP1;P1;durP2;ratioP2;P2;SDS_P1;SDS_P2;PMS_P1;PMS_P2;Temp;Humidity;BMP_temperature;BMP_pressure;BME280_temperature;BME280_humidity;BME280_pressure;Samples;Min_cycle;Max_cycle;Signal;HPM_P1;HPM_P2
2023/02/10 00:01:32;;;;;;;37.43;22.63;;;;;;;3.12;100.00;102109.31;5141090;27;20984;-67
2023/02/10 00:03:59;;;;;;;44.27;23.80;;;;;;;3.13;100.00;102107.53;5127749;28;20832;-66
2023/02/10 00:06:28;;;;;;;34.80;22.03;;;;;;;3.13;100.00;102110.19;5120670;27;20545;-66
2023/02/10 00:08:56;;;;;;;38.00;22.47;;;;;;;3.15;100.00;102109.22;5121118;28;20430;-66
2023/02/10 00:11:56;;;;;;;32.93;21.73;;;;;;;3.22;100.00;102111.69;5131594;27;20877;-68
2023/02/10 00:14:11;;;;;;;37.40;22.30;;;;;;;3.28;100.00;102122.06;5130205;28;20474;-68
2023/02/10 00:16:38;;;;;;;36.17;22.37;;;;;;;3.14;100.00;102110.16;5120384;27;20493;-68
2023/02/10 00:19:05;;;;;;;36.47;22.10;;;;;;;3.17;100.00;102110.03;5120516;28;20454;-68
2023/02/10 00:21:33;;;;;;;38.60;23.00;;;;;;;3.20;100.00;102115.22;5131512;27;20466;-69
2023/02/10 00:24:00;;;;;;;42.27;24.30;;;;;;;3.18;100.00;102110.91;5140709;28;20460;-69
2023/02/10 00:26:27;;;;;;;37.23;23.33;;;;;;;3.14;100.00;102115.44;5140613;27;21001;-68
2023/02/10 00:28:53;;;;;;;41.53;22.80;;;;;;;3.23;100.00;102116.94;5124910;28;20486;-68
2023/02/10 00:31:21;;;;;;;41.20;23.83;;;;;;;3.24;100.00;102116.00;5128191;27;20481;-69
2023/02/10 00:33:48;;;;;;;38.57;23.37;;;;;;;3.13;100.00;102118.97;5137503;28;20481;-69
2023/02/10 00:36:15;;;;;;;36.57;22.07;;;;;;;3.22;100.00;102128.41;5119684;27;20469;-69
2023/02/10 00:38:44;;;;;;;39.10;23.13;;;;;;;3.29;100.00;102124.66;5121108;28;20518;-69
2023/02/10 00:41:12;;;;;;;43.43;24.13;;;;;;;3.18;100.00;102122.34;5124624;27;20832;-69
2023/02/10 00:43:39;;;;;;;37.70;23.10;;;;;;;3.25;100.00;102123.03;5140235;28;20449;-68
2023/02/10 00:46:06;;;;;;;35.60;23.23;;;;;;;3.27;100.00;102131.78;5123322;27;20530;-68
2023/02/10 00:48:33;;;;;;;39.90;23.90;;;;;;;3.24;100.00;102129.22;5120448;28;20483;-69
2023/02/10 00:51:00;;;;;;;45.60;24.33;;;;;;;3.19;100.00;102126.72;5119595;27;20497;-69
2023/02/10 00:53:27;;;;;;;38.77;24.80;;;;;;;3.17;100.00;102122.38;5141988;27;20571;-68
2023/02/10 00:55:55;;;;;;;38.67;23.53;;;;;;;3.18;100.00;102135.56;5143715;27;20482;-68
2023/02/10 00:58:22;;;;;;;44.17;24.37;;;;;;;3.24;100.00;102136.28;5142351;27;20429;-69
2023/02/10 01:00:49;;;;;;;38.27;22.90;;;;;;;3.26;100.00;102135.31;5123721;28;20501;-69
2023/02/10 01:03:15;;;;;;;36.83;24.03;;;;;;;3.31;100.00;102140.47;5140057;27;20469;-69
2023/02/10 01:05:42;;;;;;;39.50;23.37;;;;;;;3.33;100.00;102139.53;5134095;27;20466;-69
2023/02/10 01:08:09;;;;;;;39.33;23.60;;;;;;;3.36;100.00;102147.34;5123937;28;20472;-69
2023/02/10 01:10:36;;;;;;;41.43;23.57;;;;;;;3.29;100.00;102150.22;5139955;27;20969;-70
2023/02/10 01:13:04;;;;;;;41.57;25.13;;;;;;;3.30;100.00;102144.91;5131829;27;20482;-70
2023/02/10 01:15:31;;;;;;;43.10;24.07;;;;;;;3.21;100.00;102129.28;5123592;28;20455;-70
2023/02/10 01:17:58;;;;;;;35.20;24.37;;;;;;;3.36;100.00;102135.91;5129777;27;20961;-70
2023/02/10 01:20:25;;;;;;;44.53;24.40;;;;;;;3.35;100.00;102136.81;5135370;27;20434;-70
2023/02/10 01:22:53;;;;;;;46.10;24.97;;;;;;;3.32;100.00;102135.13;5139932;27;20450;-69
2023/02/10 01:25:19;;;;;;;41.97;25.20;;;;;;;3.38;100.00;102139.34;5123893;28;21018;-69
2023/02/10 01:27:46;;;;;;;35.43;22.40;;;;;;;3.38;100.00;102142.00;5124111;28;20442;-69
2023/02/10 01:30:15;;;;;;;36.50;23.40;;;;;;;3.24;100.00;102141.56;5123361;28;20481;-69
2023/02/10 01:32:41;;;;;;;39.37;23.27;;;;;;;3.29;100.00;102145.81;5124256;28;20544;-69
2023/02/10 01:35:08;;;;;;;42.57;26.30;;;;;;;3.17;100.00;102152.31;5123248;27;20490;-69
2023/02/10 01:37:37;;;;;;;40.60;24.40;;;;;;;3.19;100.00;102139.94;5124681;28;20486;-69
2023/02/10 01:40:05;;;;;;;44.70;24.43;;;;;;;3.26;100.00;102151.16;5124866;27;20447;-69
2023/02/10 01:42:31;;;;;;;38.20;23.37;;;;;;;3.22;100.00;102141.63;5123831;28;20463;-69
2023/02/10 01:45:25;;;;;;;45.60;23.00;;;;;;;3.18;100.00;102138.19;5128269;27;20458;-68
2023/02/10 01:47:53;;;;;;;39.27;22.03;;;;;;;3.20;100.00;102140.81;5124247;27;20545;-68
2023/02/10 01:50:22;;;;;;;44.10;24.17;;;;;;;2.99;100.00;102139.66;5123385;27;20457;-68
2023/02/10 01:52:50;;;;;;;39.37;24.57;;;;;;;2.96;100.00;102137.97;5123435;28;20475;-68
2023/02/10 01:55:18;;;;;;;37.07;23.00;;;;;;;2.84;100.00;102140.97;5134482;27;20529;-69
2023/02/10 01:57:46;;;;;;;47.57;25.13;;;;;;;2.69;100.00;102141.41;5123098;28;20504;-68
2023/02/10 02:00:14;;;;;;;45.50;23.23;;;;;;;2.65;100.00;102140.63;5123614;27;20439;-68
2023/02/10 02:02:42;;;;;;;45.23;26.00;;;;;;;2.48;100.00;102151.66;5128906;27;20478;-68
2023/02/10 02:05:21;;;;;;;38.27;24.03;;;;;;;2.35;100.00;102147.63;5131963;27;20464;-68
2023/02/10 02:07:48;;;;;;;44.07;23.23;;;;;;;2.34;100.00;102152.00;5138511;27;20449;-68
2023/02/10 02:10:15;;;;;;;40.30;24.27;;;;;;;2.28;100.00;102164.53;5123357;27;20521;-68
2023/02/10 02:12:47;;;;;;;40.37;23.77;;;;;;;2.23;100.00;102159.38;5141583;27;20474;-68
2023/02/10 02:15:20;;;;;;;47.73;24.97;;;;;;;2.18;100.00;102154.19;5139306;27;20561;-68
2023/02/10 02:17:52;;;;;;;49.70;27.07;;;;;;;2.16;100.00;102149.88;5143614;27;20520;-68
2023/02/10 02:20:48;;;;;;;51.43;26.53;;;;;;;2.03;100.00;102154.59;5143144;27;20445;-68
2023/02/10 02:23:21;;;;;;;45.57;25.40;;;;;;;1.91;100.00;102154.91;5123248;28;20482;-68
2023/02/10 02:26:18;;;;;;;43.00;26.00;;;;;;;1.86;100.00;102157.66;5137035;27;20489;-69
2023/02/10 02:28:55;;;;;;;43.07;24.63;;;;;;;1.85;100.00;102158.56;5143054;27;20434;-68
2023/02/10 02:31:45;;;;;;;42.50;25.17;;;;;;;1.69;100.00;102153.66;5141545;27;20537;-68
2023/02/10 02:34:15;;;;;;;43.43;26.67;;;;;;;1.78;100.00;102149.06;5121982;28;21019;-68
2023/02/10 02:36:42;;;;;;;46.80;25.40;;;;;;;1.77;100.00;102158.75;5122866;27;20475;-68
2023/02/10 02:39:09;;;;;;;45.43;26.00;;;;;;;1.67;100.00;102154.59;5123168;28;20506;-67
2023/02/10 02:41:36;;;;;;;37.30;24.67;;;;;;;1.54;100.00;102151.38;5122652;27;20502;-68
2023/02/10 02:44:04;;;;;;;46.03;25.83;;;;;;;1.54;100.00;102153.16;5122637;28;20477;-69
2023/02/10 02:46:42;;;;;;;47.20;24.43;;;;;;;1.59;100.00;102162.69;5122618;27;20505;-67
2023/02/10 02:49:14;;;;;;;44.90;22.90;;;;;;;1.59;100.00;102160.03;5122453;28;20490;-69
2023/02/10 02:51:43;;;;;;;37.13;24.57;;;;;;;1.49;100.00;102158.53;5121821;27;20498;-68
2023/02/10 02:54:18;;;;;;;40.23;24.83;;;;;;;1.38;100.00;102155.28;5123068;28;20514;-68
2023/02/10 02:56:48;;;;;;;50.77;26.93;;;;;;;1.43;100.00;102150.78;5122640;27;20485;-69
2023/02/10 02:59:19;;;;;;;39.50;24.50;;;;;;;1.45;100.00;102156.88;5122075;28;20746;-68
2023/02/10 03:01:51;;;;;;;47.50;24.60;;;;;;;1.46;100.00;102159.47;5121563;27;20481;-67
2023/02/10 03:04:18;;;;;;;49.83;26.20;;;;;;;1.61;100.00;102166.13;5122145;28;20961;-67
2023/02/10 03:06:45;;;;;;;49.60;25.23;;;;;;;1.63;100.00;102161.72;5121879;28;20495;-68
2023/02/10 03:09:12;;;;;;;53.03;28.00;;;;;;;1.63;100.00;102151.19;5122892;28;20491;-68
2023/02/10 03:11:38;;;;;;;42.60;25.77;;;;;;;1.62;100.00;102153.84;5121496;28;20518;-69
2023/02/10 03:14:05;;;;;;;42.60;28.17;;;;;;;1.70;100.00;102146.59;5122624;28;20510;-69
2023/02/10 03:16:32;;;;;;;62.87;27.33;;;;;;;1.72;100.00;102144.81;5121246;28;20620;-69
2023/02/10 03:19:00;;;;;;;47.93;25.43;;;;;;;1.84;100.00;102136.59;5121849;28;20470;-68
2023/02/10 03:21:26;;;;;;;47.07;27.90;;;;;;;1.95;100.00;102140.75;5121322;28;20503;-68
2023/02/10 03:23:53;;;;;;;47.83;26.93;;;;;;;2.04;100.00;102145.78;5122111;28;20453;-69
2023/02/10 03:26:20;;;;;;;50.73;28.07;;;;;;;2.15;100.00;102137.59;5121823;28;20470;-68
2023/02/10 03:28:46;;;;;;;48.90;26.40;;;;;;;2.29;100.00;102134.56;5122005;28;20431;-69
2023/02/10 03:31:13;;;;;;;49.97;26.87;;;;;;;2.30;100.00;102134.53;5121237;27;20489;-69
2023/02/10 03:33:40;;;;;;;46.00;25.10;;;;;;;2.46;100.00;102140.28;5121597;28;20480;-69
2023/02/10 03:36:08;;;;;;;51.13;26.80;;;;;;;2.51;100.00;102130.44;5121908;28;20504;-69
2023/02/10 03:38:35;;;;;;;47.80;26.30;;;;;;;2.59;100.00;102139.03;5122243;28;20708;-68
2023/02/10 03:41:01;;;;;;;46.63;25.53;;;;;;;2.71;100.00;102143.09;5121605;28;20554;-68
2023/02/10 03:43:28;;;;;;;52.77;29.57;;;;;;;2.76;100.00;102146.50;5121606;28;20509;-68
2023/02/10 03:45:55;;;;;;;55.67;29.90;;;;;;;2.90;100.00;102150.50;5121461;28;21077;-68
2023/02/10 03:48:26;;;;;;;56.97;29.03;;;;;;;2.81;100.00;102144.59;5121599;28;20883;-69
2023/02/10 03:50:52;;;;;;;49.80;29.63;;;;;;;2.84;100.00;102154.19;5121235;28;20474;-69
2023/02/10 03:53:20;;;;;;;61.53;31.60;;;;;;;2.87;100.00;102155.88;5121945;28;20454;-69
2023/02/10 03:55:47;;;;;;;61.77;32.97;;;;;;;2.87;100.00;102151.47;5121464;28;20493;-69
2023/02/10 03:58:14;;;;;;;61.30;31.97;;;;;;;2.89;100.00;102152.28;5120952;28;20450;-69
2023/02/10 04:00:41;;;;;;;66.80;33.80;;;;;;;2.85;100.00;102158.56;5121629;28;20484;-68
2023/02/10 04:03:07;;;;;;;54.03;30.23;;;;;;;2.95;100.00;102156.50;5121192;28;20980;-70
2023/02/10 04:05:34;;;;;;;56.73;30.97;;;;;;;2.88;100.00;102147.03;5121121;28;20477;-68
2023/02/10 04:08:01;;;;;;;73.23;34.10;;;;;;;2.91;100.00;102144.31;5121679;28;20462;-68
2023/02/10 04:10:29;;;;;;;63.10;32.10;;;;;;;2.88;100.00;102158.44;5120848;28;20791;-68
2023/02/10 04:12:56;;;;;;;70.13;33.37;;;;;;;2.97;100.00;102160.00;5121566;28;20434;-68
2023/02/10 04:15:23;;;;;;;67.23;33.70;;;;;;;2.96;100.00;102160.91;5121358;28;20474;-68
2023/02/10 04:17:50;;;;;;;70.20;36.87;;;;;;;2.85;100.00;102155.94;5121771;28;20474;-68
2023/02/10 04:20:16;;;;;;;62.47;34.83;;;;;;;2.91;100.00;102161.00;5120423;28;20443;-68
2023/02/10 04:22:43;;;;;;;55.90;34.23;;;;;;;2.90;100.00;102163.69;5121583;28;20457;-68
2023/02/10 04:25:10;;;;;;;65.43;33.77;;;;;;;2.85;100.00;102166.50;5120811;28;20486;-68
2023/02/10 04:27:38;;;;;;;64.63;35.40;;;;;;;2.70;100.00;102162.50;5101038;28;20452;-68
2023/02/10 04:30:06;;;;;;;62.20;35.20;;;;;;;2.72;100.00;102152.75;5113591;28;20861;-68
2023/02/10 04:32:32;;;;;;;63.73;34.23;;;;;;;2.73;100.00;102154.50;5124942;28;20466;-68
2023/02/10 04:34:59;;;;;;;66.33;34.43;;;;;;;2.71;100.00;102163.34;5124919;28;20529;-69
2023/02/10 04:37:25;;;;;;;67.00;36.60;;;;;;;2.71;100.00;102158.97;5125286;28;20513;-69
2023/02/10 04:39:52;;;;;;;61.90;33.03;;;;;;;2.68;100.00;102159.03;5125265;28;20478;-68
2023/02/10 04:42:19;;;;;;;65.60;35.47;;;;;;;2.70;100.00;102151.06;5125032;28;20463;-68
2023/02/10 04:44:47;;;;;;;63.20;35.17;;;;;;;2.66;100.00;102158.22;5125895;28;20434;-68
2023/02/10 04:47:13;;;;;;;69.83;37.20;;;;;;;2.67;100.00;102159.94;5125104;28;21067;-68
2023/02/10 04:49:40;;;;;;;59.33;36.97;;;;;;;2.59;100.00;102165.44;5124813;28;20474;-69
2023/02/10 04:52:07;;;;;;;66.07;36.20;;;;;;;2.70;100.00;102159.00;5125051;28;20513;-68
2023/02/10 04:54:33;;;;;;;77.07;36.27;;;;;;;2.55;100.00;102165.56;5125385;27;20540;-67
2023/02/10 04:57:00;;;;;;;63.50;35.83;;;;;;;2.55;100.00;102150.59;5127802;27;21048;-68
2023/02/10 04:59:26;;;;;;;69.83;35.50;;;;;;;2.56;100.00;102157.59;5123962;28;20499;-68
2023/02/10 05:01:55;;;;;;;72.73;36.30;;;;;;;2.58;100.00;102161.06;5123669;28;20478;-69
2023/02/10 05:04:21;;;;;;;69.17;37.10;;;;;;;2.61;100.00;102158.34;5123754;28;20503;-70
2023/02/10 05:06:48;;;;;;;68.37;37.80;;;;;;;2.60;100.00;102156.63;5124111;28;21018;-69
2023/02/10 05:09:14;;;;;;;72.90;39.37;;;;;;;2.63;100.00;102161.78;5124741;28;20484;-70
2023/02/10 05:11:43;;;;;;;67.33;38.10;;;;;;;2.63;100.00;102155.66;5123901;28;20505;-70
2023/02/10 05:14:10;;;;;;;78.17;37.37;;;;;;;2.59;100.00;102154.03;5104245;28;20443;-69
2023/02/10 05:16:37;;;;;;;67.77;36.20;;;;;;;2.57;100.00;102155.81;5115430;28;20513;-69
2023/02/10 05:19:05;;;;;;;70.10;38.07;;;;;;;2.62;100.00;102159.19;5124226;28;20821;-69
2023/02/10 05:21:31;;;;;;;69.63;36.30;;;;;;;2.56;100.00;102165.50;5124427;28;20501;-69
2023/02/10 05:23:58;;;;;;;68.47;38.57;;;;;;;2.52;100.00;102160.34;5124178;28;20993;-69
2023/02/10 05:26:25;;;;;;;74.40;36.50;;;;;;;2.60;100.00;102168.94;5125630;27;20501;-70
2023/02/10 05:28:52;;;;;;;69.13;35.43;;;;;;;2.53;100.00;102167.38;5133274;27;20481;-72
2023/02/10 05:31:19;;;;;;;69.03;37.00;;;;;;;2.58;100.00;102173.41;5123598;27;20510;-68
2023/02/10 05:33:45;;;;;;;67.00;35.67;;;;;;;2.56;100.00;102181.34;5124209;27;20459;-66
2023/02/10 05:36:13;;;;;;;70.27;35.83;;;;;;;2.63;100.00;102189.97;5130175;27;20475;-65
2023/02/10 05:39:22;;;;;;;72.53;37.10;;;;;;;2.60;100.00;102180.38;5124141;28;20486;-65
2023/02/10 05:41:27;;;;;;;70.40;36.07;;;;;;;2.68;100.00;102193.38;5122337;28;21949;-66
2023/02/10 05:43:54;;;;;;;80.13;39.70;;;;;;;2.65;100.00;102204.00;5124134;28;20486;-65
2023/02/10 05:46:20;;;;;;;88.40;40.17;;;;;;;2.72;100.00;102202.06;5122674;28;20546;-65
2023/02/10 05:48:47;;;;;;;87.93;39.20;;;;;;;2.68;100.00;102196.00;5121751;28;20467;-65
2023/02/10 05:51:15;;;;;;;82.77;41.13;;;;;;;2.67;100.00;102202.19;5123303;27;20474;-66
2023/02/10 05:53:42;;;;;;;80.27;40.20;;;;;;;2.80;100.00;102208.88;5124296;28;20484;-65
2023/02/10 05:56:08;;;;;;;79.57;39.83;;;;;;;2.85;100.00;102210.50;5123762;28;20479;-65
2023/02/10 05:58:35;;;;;;;79.13;40.50;;;;;;;2.81;100.00;102215.00;5123058;28;21163;-65
2023/02/10 06:01:02;;;;;;;91.90;40.70;;;;;;;2.80;100.00;102218.59;5122455;28;21055;-65
2023/02/10 06:03:28;;;;;;;76.70;41.17;;;;;;;2.64;100.00;102220.78;5122776;28;20465;-65
2023/02/10 06:05:55;;;;;;;85.93;42.13;;;;;;;2.69;100.00;102218.00;5123619;28;20488;-66
2023/02/10 06:08:23;;;;;;;76.50;39.70;;;;;;;2.76;100.00;102220.44;5123893;28;20439;-66
2023/02/10 06:10:50;;;;;;;82.60;40.77;;;;;;;2.74;100.00;102227.56;5122496;28;20827;-65
2023/02/10 06:13:16;;;;;;;85.67;40.03;;;;;;;2.73;100.00;102223.16;5123083;28;20974;-65
2023/02/10 06:15:43;;;;;;;80.37;39.57;;;;;;;2.69;100.00;102223.28;5123126;28;20474;-66
2023/02/10 06:18:09;;;;;;;84.73;41.27;;;;;;;2.65;100.00;102227.78;5122674;28;20438;-66
2023/02/10 06:20:36;;;;;;;72.50;37.20;;;;;;;2.61;100.00;102231.41;5122680;28;20462;-66
2023/02/10 06:23:03;;;;;;;89.33;41.77;;;;;;;2.63;100.00;102241.00;5123189;28;20451;-65
2023/02/10 06:25:31;;;;;;;83.63;41.83;;;;;;;2.54;100.00;102240.41;5122397;28;20501;-66
2023/02/10 06:27:57;;;;;;;81.77;41.43;;;;;;;2.47;100.00;102244.97;5122890;28;20450;-66
2023/02/10 06:30:24;;;;;;;78.03;40.87;;;;;;;2.32;100.00;102255.91;5122920;28;20478;-65
2023/02/10 06:32:51;;;;;;;86.23;39.60;;;;;;;2.39;100.00;102260.13;5123377;28;20454;-65
2023/02/10 06:35:18;;;;;;;76.90;38.77;;;;;;;2.34;100.00;102268.16;5122465;28;20494;-65
2023/02/10 06:37:44;;;;;;;83.30;41.30;;;;;;;2.41;100.00;102268.88;5123305;28;21044;-65
2023/02/10 06:40:12;;;;;;;77.50;41.47;;;;;;;2.43;100.00;102257.38;5122683;28;20467;-65
2023/02/10 06:42:40;;;;;;;80.17;37.13;;;;;;;2.34;100.00;102267.31;5123156;28;20454;-65
2023/02/10 06:45:08;;;;;;;81.60;39.60;;;;;;;2.39;100.00;102270.69;5122671;28;20455;-65
2023/02/10 06:47:35;;;;;;;79.90;39.10;;;;;;;2.43;100.00;102275.88;5123677;27;20485;-65
2023/02/10 06:50:01;;;;;;;82.20;39.03;;;;;;;2.56;100.00;102265.84;5130962;27;20472;-66
2023/02/10 06:52:28;;;;;;;95.07;43.87;;;;;;;2.53;100.00;102270.34;5125644;27;20465;-66
2023/02/10 06:54:55;;;;;;;92.63;40.90;;;;;;;2.52;100.00;102274.78;5143430;27;20614;-66
2023/02/10 06:57:21;;;;;;;96.20;42.07;;;;;;;2.40;100.00;102267.16;5142221;27;20474;-65
2023/02/10 06:59:52;;;;;;;86.90;41.40;;;;;;;2.50;100.00;102268.66;5128434;27;20446;-66
2023/02/10 07:02:19;;;;;;;120.00;44.23;;;;;;;2.50;100.00;102267.78;5140707;27;20481;-65
2023/02/10 07:04:46;;;;;;;90.83;43.43;;;;;;;2.51;100.00;102270.38;5136487;27;20470;-66
2023/02/10 07:07:12;;;;;;;96.17;41.70;;;;;;;2.54;100.00;102257.09;5121872;28;20500;-66
2023/02/10 07:09:39;;;;;;;99.93;44.10;;;;;;;2.68;100.00;102269.09;5136271;27;20460;-65
2023/02/10 07:12:06;;;;;;;102.97;46.63;;;;;;;2.55;100.00;102260.59;5125346;27;20609;-65
2023/02/10 07:14:32;;;;;;;105.07;46.80;;;;;;;2.50;100.00;102262.50;5139024;27;20465;-65
2023/02/10 07:17:00;;;;;;;109.00;48.83;;;;;;;2.68;100.00;102269.97;5122142;28;20474;-65
2023/02/10 07:19:27;;;;;;;103.90;46.60;;;;;;;2.63;100.00;102278.00;5121784;28;20482;-65
2023/02/10 07:21:53;;;;;;;114.50;47.97;;;;;;;2.69;100.00;102276.09;5137289;27;20496;-65
2023/02/10 07:24:20;;;;;;;114.17;47.63;;;;;;;2.81;100.00;102278.41;5126757;27;20470;-65
2023/02/10 07:26:48;;;;;;;113.83;45.07;;;;;;;2.62;100.00;102283.31;5134154;27;20506;-65
2023/02/10 07:29:15;;;;;;;110.07;47.23;;;;;;;2.77;100.00;102272.34;5131470;27;20483;-65
2023/02/10 07:31:42;;;;;;;100.80;45.70;;;;;;;2.66;100.00;102276.16;5136841;27;20491;-65
2023/02/10 07:34:10;;;;;;;93.43;46.67;;;;;;;2.83;100.00;102273.97;5124842;27;20442;-65
2023/02/10 07:36:36;;;;;;;90.10;42.03;;;;;;;2.85;100.00;102277.44;5141618;27;20465;-65
2023/02/10 07:39:03;;;;;;;98.33;44.97;;;;;;;2.71;100.00;102269.88;5142829;27;20500;-65
2023/02/10 07:41:30;;;;;;;102.93;45.87;;;;;;;2.93;100.00;102264.88;5142093;27;20477;-66
2023/02/10 07:43:56;;;;;;;97.37;47.10;;;;;;;2.95;100.00;102268.38;5136797;27;20974;-66
2023/02/10 07:46:23;;;;;;;101.20;47.63;;;;;;;3.04;100.00;102264.59;5130770;27;20489;-65
2023/02/10 07:48:49;;;;;;;98.77;46.27;;;;;;;2.93;100.00;102272.78;5128964;27;20450;-66
2023/02/10 07:51:17;;;;;;;104.80;45.90;;;;;;;2.88;100.00;102266.78;5138331;27;20489;-65
2023/02/10 07:53:44;;;;;;;94.17;42.57;;;;;;;3.12;100.00;102269.66;5142384;27;20457;-66
2023/02/10 07:56:11;;;;;;;99.03;44.60;;;;;;;2.95;100.00;102265.72;5121078;27;20479;-66
2023/02/10 07:58:38;;;;;;;103.10;47.00;;;;;;;3.06;100.00;102269.84;5120911;28;20447;-65
2023/02/10 08:01:07;;;;;;;97.43;44.80;;;;;;;3.00;100.00;102279.69;5119310;28;20501;-65
2023/02/10 08:03:33;;;;;;;96.57;45.30;;;;;;;2.88;100.00;102287.03;5120408;28;20471;-65
2023/02/10 08:06:01;;;;;;;95.80;45.93;;;;;;;3.11;100.00;102275.88;5121483;28;20508;-65
2023/02/10 08:08:29;;;;;;;90.80;43.13;;;;;;;3.19;100.00;102287.06;5122132;28;20434;-66
2023/02/10 08:10:57;;;;;;;100.53;46.10;;;;;;;3.15;100.00;102286.28;5121394;28;20499;-65
2023/02/10 08:13:24;;;;;;;92.23;42.80;;;;;;;2.96;100.00;102280.66;5121340;28;20461;-66
2023/02/10 08:15:51;;;;;;;96.10;44.87;;;;;;;3.03;100.00;102288.41;5119327;27;20474;-65
2023/02/10 08:18:19;;;;;;;98.07;44.67;;;;;;;3.01;100.00;102283.19;5121670;28;20473;-66
2023/02/10 08:20:47;;;;;;;99.30;44.93;;;;;;;3.05;100.00;102286.59;5115584;28;20535;-65
2023/02/10 08:23:17;;;;;;;92.87;44.37;;;;;;;2.86;100.00;102288.88;5100366;28;20451;-66
2023/02/10 08:25:46;;;;;;;100.10;47.77;;;;;;;3.05;100.00;102290.09;5106136;28;20477;-65
2023/02/10 08:28:13;;;;;;;106.93;47.00;;;;;;;3.17;100.00;102297.69;5121070;28;20435;-66
2023/02/10 08:30:41;;;;;;;104.83;48.47;;;;;;;3.34;100.00;102293.72;5116888;28;20455;-66
2023/02/10 08:33:09;;;;;;;105.47;46.80;;;;;;;3.38;100.00;102300.66;5100849;28;20484;-66
2023/02/10 08:35:38;;;;;;;112.77;47.40;;;;;;;3.30;100.00;102305.28;5104720;28;20461;-66
2023/02/10 08:38:06;;;;;;;104.40;47.37;;;;;;;3.53;100.00;102297.56;5120637;28;20541;-65
2023/02/10 08:40:34;;;;;;;109.70;48.53;;;;;;;3.36;100.00;102310.41;5114731;28;20460;-66
2023/02/10 08:43:05;;;;;;;107.87;50.30;;;;;;;3.33;100.00;102311.38;5099843;28;20452;-65
2023/02/10 08:45:33;;;;;;;123.97;49.53;;;;;;;3.45;100.00;102307.47;5103497;28;20480;-66
2023/02/10 08:48:01;;;;;;;128.30;50.57;;;;;;;3.34;100.00;102310.44;5120591;28;20447;-65
2023/02/10 08:50:28;;;;;;;110.40;49.17;;;;;;;3.51;100.00;102309.09;5117388;28;20531;-65
2023/02/10 08:52:55;;;;;;;108.23;49.07;;;;;;;3.34;100.00;102317.50;5100208;28;20444;-65
2023/02/10 08:55:23;;;;;;;120.40;49.67;;;;;;;3.33;100.00;102311.38;5100586;28;20471;-66
2023/02/10 08:57:50;;;;;;;106.50;47.33;;;;;;;3.30;100.00;102313.19;5119641;28;20441;-66
2023/02/10 09:00:19;;;;;;;114.73;46.87;;;;;;;3.52;100.00;102316.13;5120073;28;20449;-66
2023/02/10 09:02:47;;;;;;;108.20;47.00;;;;;;;3.47;100.00;102312.72;5120174;28;20803;-65
2023/02/10 09:05:15;;;;;;;128.00;49.90;;;;;;;3.23;100.00;102322.22;5118901;28;20533;-65
2023/02/10 09:07:43;;;;;;;110.77;46.50;;;;;;;3.04;100.00;102309.53;5121072;28;20995;-65
2023/02/10 09:10:11;;;;;;;105.03;47.47;;;;;;;3.25;100.00;102316.00;5119363;28;20446;-65
2023/02/10 09:12:40;;;;;;;112.80;49.90;;;;;;;3.35;100.00;102314.84;5120438;28;20447;-65
2023/02/10 09:15:09;;;;;;;119.43;48.87;;;;;;;3.44;100.00;102319.00;5120629;28;20447;-65
2023/02/10 09:17:38;;;;;;;104.03;47.03;;;;;;;3.77;100.00;102317.13;5123602;28;20454;-65
2023/02/10 09:20:06;;;;;;;94.07;44.10;;;;;;;3.45;100.00;102322.50;5123654;28;20490;-64
2023/02/10 09:22:33;;;;;;;92.43;45.50;;;;;;;3.53;100.00;102324.00;5123692;28;20524;-64
2023/02/10 09:25:01;;;;;;;100.90;47.07;;;;;;;3.49;100.00;102321.47;5123085;28;20482;-64
2023/02/10 09:27:28;;;;;;;97.00;45.33;;;;;;;3.45;100.00;102315.41;5123738;27;20683;-64
2023/02/10 09:29:55;;;;;;;92.67;43.43;;;;;;;3.56;100.00;102315.13;5123338;28;20434;-65
2023/02/10 09:32:22;;;;;;;96.70;45.20;;;;;;;3.46;100.00;102317.16;5123062;28;20539;-64
2023/02/10 09:34:50;;;;;;;89.43;44.60;;;;;;;3.97;100.00;102326.25;5123127;28;20511;-65
2023/02/10 09:37:17;;;;;;;106.00;48.80;;;;;;;4.11;100.00;102332.00;5120969;28;20513;-65
2023/02/10 09:39:44;;;;;;;90.47;47.17;;;;;;;4.32;100.00;102341.03;5122569;28;20474;-65
2023/02/10 09:42:18;;;;;;;81.87;43.63;;;;;;;4.28;100.00;102333.25;5104940;28;20471;-65
2023/02/10 09:44:49;;;;;;;93.13;43.80;;;;;;;4.00;100.00;102317.34;5102734;28;20480;-65
2023/02/10 09:47:29;;;;;;;89.50;45.17;;;;;;;4.01;100.00;102329.66;5120385;28;20459;-65
2023/02/10 09:50:25;;;;;;;88.57;43.47;;;;;;;4.18;100.00;102329.16;5120286;28;20446;-65
2023/02/10 09:53:08;;;;;;;93.30;45.53;;;;;;;4.20;100.00;102335.25;5122602;28;20976;-65
2023/02/10 09:55:37;;;;;;;84.80;44.90;;;;;;;4.43;100.00;102335.41;5121155;28;20486;-65
2023/02/10 09:58:13;;;;;;;86.90;44.53;;;;;;;4.58;100.00;102335.81;5122687;28;20841;-65
2023/02/10 10:00:41;;;;;;;82.40;40.93;;;;;;;4.19;100.00;102331.75;5122691;28;20522;-64
2023/02/10 10:03:14;;;;;;;88.83;42.00;;;;;;;4.24;100.00;102340.41;5122124;28;20492;-65
2023/02/10 10:05:48;;;;;;;77.90;40.50;;;;;;;4.60;100.00;102341.91;5122357;28;20466;-64
2023/02/10 10:08:23;;;;;;;92.10;44.63;;;;;;;4.51;100.00;102332.47;5123435;28;20806;-65
2023/02/10 10:10:50;;;;;;;82.00;40.67;;;;;;;4.00;100.00;102331.44;5122395;27;20480;-65
2023/02/10 10:13:21;;;;;;;83.63;42.00;;;;;;;3.80;100.00;102333.81;5122547;28;20500;-65
2023/02/10 10:15:58;;;;;;;78.53;40.90;;;;;;;4.13;100.00;102335.47;5122524;28;20482;-65
2023/02/10 10:18:29;;;;;;;77.10;40.50;;;;;;;4.13;100.00;102335.47;5122396;28;20518;-65
2023/02/10 10:21:02;;;;;;;79.07;41.70;;;;;;;4.23;100.00;102340.47;5121743;28;20487;-65
2023/02/10 10:23:40;;;;;;;84.13;41.40;;;;;;;4.09;100.00;102335.59;5122354;28;20446;-65
2023/02/10 10:26:16;;;;;;;78.03;42.30;;;;;;;4.41;100.00;102336.34;5121516;28;20483;-65
2023/02/10 10:28:50;;;;;;;84.57;42.07;;;;;;;4.25;100.00;102339.50;5122687;28;20467;-65
2023/02/10 10:31:19;;;;;;;79.87;41.47;;;;;;;4.62;100.00;102338.31;5121891;28;20473;-66
2023/02/10 10:33:50;;;;;;;78.73;41.97;;;;;;;5.07;100.00;102336.81;5121389;28;20444;-65
2023/02/10 10:36:21;;;;;;;87.07;44.47;;;;;;;4.88;100.00;102341.88;5122303;27;20478;-65
2023/02/10 10:38:50;;;;;;;75.70;39.90;;;;;;;4.95;100.00;102347.81;5121524;28;20484;-65
2023/02/10 10:41:17;;;;;;;80.00;40.80;;;;;;;5.20;100.00;102350.50;5121711;28;20491;-65
2023/02/10 10:43:47;;;;;;;81.00;44.30;;;;;;;4.90;100.00;102351.50;5122529;28;20457;-65
2023/02/10 10:46:18;;;;;;;82.20;41.40;;;;;;;4.50;100.00;102350.16;5121505;28;20972;-65
2023/02/10 10:48:45;;;;;;;84.30;40.87;;;;;;;4.80;100.00;102350.06;5122252;28;20427;-64
2023/02/10 10:51:13;;;;;;;88.73;42.20;;;;;;;5.38;100.00;102341.00;5122327;28;20468;-65
2023/02/10 10:53:43;;;;;;;77.73;42.10;;;;;;;5.30;100.00;102340.44;5121039;28;20452;-65
2023/02/10 10:56:16;;;;;;;69.20;39.77;;;;;;;5.45;100.00;102342.50;5112439;28;20548;-64
2023/02/10 10:58:44;;;;;;;72.50;39.13;;;;;;;5.65;100.00;102345.28;5101248;28;20440;-64
2023/02/10 11:01:12;;;;;;;67.77;38.30;;;;;;;5.73;100.00;102339.72;5109547;28;20468;-65
2023/02/10 11:03:38;;;;;;;73.80;40.90;;;;;;;5.82;100.00;102338.50;5121749;28;20944;-65
2023/02/10 11:06:09;;;;;;;62.23;36.80;;;;;;;5.59;100.00;102334.94;5112754;28;20548;-64
2023/02/10 11:08:41;;;;;;;65.80;36.73;;;;;;;5.58;100.00;102334.97;5101022;28;20946;-64
2023/02/10 11:11:11;;;;;;;64.13;37.03;;;;;;;5.59;100.00;102324.31;5105318;28;20481;-64
2023/02/10 11:13:40;;;;;;;64.83;36.30;;;;;;;6.11;100.00;102317.94;5110697;28;20514;-64
2023/02/10 11:16:11;;;;;;;68.23;34.20;;;;;;;5.82;100.00;102307.50;5099837;28;20485;-65